Front Runner — 3FRP5 — position and weather

sailwx.info

Track history (hours):
 
Tides and Currents Weather Stations Pressure Air Temp Water Temp Dewpoint Dewpoint Depression Visibility Wind Speed Wind Dir Waves Ship Positions

Front Runner

Last reported at 2014-Dec-07 07:26 UTC. Time now 2014-Dec-20 08:01 UTC.
Position N 36°52' W 125°21'.
Warning: this ship's position is 13 days out of date.

Length 190 m; draft 11.6 m.

Type: Cargo ship. MMSI: 357941000.

Date/timePositionNaut miles runAvg speedWind from/ knotsBaromVisibWave heightAir tempDewpointWater temp
2014-Dec-07 07:26N 36°52' W 125°21'2410.8
2014-Dec-07 05:12N 37°16' W 125°24'  
2014-Dec-04 11:13N 48°00' W 125°41'810.6
2014-Dec-04 10:30N 48°05' W 125°33'1010.9
2014-Dec-04 09:33N 48°13' W 125°22'1110.6
2014-Dec-04 08:33N 48°21' W 125°12'1010.3
2014-Dec-04 07:33N 48°29' W 125°03'1111.0
2014-Dec-04 06:33N 48°30' W 124°47'1111.5
2014-Dec-04 05:33N 48°27' W 124°30'1212.4
2014-Dec-04 04:33N 48°22' W 124°13'1312.6
2014-Dec-04 03:33N 48°18' W 123°55'1414.2
2014-Dec-04 02:34N 48°15' W 123°34'1110.9
2014-Dec-04 01:33N 48°23' W 123°22'1111.2
2014-Dec-04 00:34N 48°32' W 123°13'1312.5
2014-Dec-03 23:33N 48°44' W 123°08'9 9.4
2014-Dec-03 22:33N 48°54' W 123°08'1313.4
2014-Dec-03 21:33N 49°03' W 123°23'1312.9
2014-Dec-03 20:33N 49°16' W 123°20'9 9.2
2014-Dec-03 19:34N 49°18' W 123°06'2 2.0
2014-Dec-03 18:32N 49°18' W 123°03'0 0.0
2014-Dec-03 17:32N 49°18' W 123°03'0 0.0
2014-Dec-03 16:32N 49°18' W 123°03'0 0.0
2014-Dec-03 15:32N 49°18' W 123°03'0 0.0
2014-Dec-03 14:32N 49°18' W 123°03'0 0.0
2014-Dec-03 13:32N 49°18' W 123°03'0 0.0
2014-Dec-03 12:32N 49°18' W 123°03'0 0.0
2014-Dec-03 11:32N 49°18' W 123°03'0 0.0
2014-Dec-03 10:32N 49°18' W 123°03'0 0.0
2014-Dec-03 09:32N 49°18' W 123°03'0 0.0
2014-Dec-03 08:32N 49°18' W 123°03'0 0.0
2014-Dec-03 07:32N 49°18' W 123°03'0 0.0
2014-Dec-03 06:32N 49°18' W 123°03'0 0.0
2014-Dec-03 05:32N 49°18' W 123°03'0 0.0
2014-Dec-03 04:32N 49°18' W 123°03'0 0.0
2014-Dec-03 03:32N 49°18' W 123°03'0 0.0
2014-Dec-03 02:32N 49°18' W 123°03'0 0.0
2014-Dec-03 01:32N 49°18' W 123°03'0 0.0
2014-Dec-03 00:32N 49°18' W 123°03'0 0.0
2014-Dec-02 23:32N 49°18' W 123°03'0 0.0
2014-Dec-02 22:32N 49°18' W 123°03'0 0.0
2014-Dec-02 21:32N 49°18' W 123°03'0 0.0
2014-Dec-02 20:29N 49°18' W 123°03'0 0.0
2014-Dec-02 19:33N 49°18' W 123°03'0 0.0
2014-Dec-02 18:33N 49°18' W 123°03'0 0.0
2014-Dec-02 17:33N 49°18' W 123°03'0 0.0
2014-Dec-02 16:30N 49°18' W 123°03'0 0.0
2014-Dec-02 15:33N 49°18' W 123°03'0 0.0
2014-Dec-02 14:33N 49°18' W 123°03'0 0.0
2014-Dec-02 13:33N 49°18' W 123°03'0 0.0
2014-Dec-02 12:33N 49°18' W 123°03'0 0.0
2014-Dec-02 11:33N 49°18' W 123°03'0 0.0
2014-Dec-02 10:33N 49°18' W 123°03'0 0.0
2014-Dec-02 09:33N 49°18' W 123°03'0 0.0
2014-Dec-02 08:33N 49°18' W 123°03'0 0.0
2014-Dec-02 07:33N 49°18' W 123°03'0 0.0
2014-Dec-02 06:33N 49°18' W 123°03'0 0.0
2014-Dec-02 05:33N 49°18' W 123°03'0 0.0
2014-Dec-02 04:33N 49°18' W 123°03'0 0.0
2014-Dec-02 03:33N 49°18' W 123°03'0 0.0
2014-Dec-02 02:33N 49°18' W 123°03'1 1.1
2014-Dec-02 01:33N 49°18' W 123°05'8 8.2
2014-Dec-02 00:34N 49°18' W 123°17'1313.1
2014-Dec-01 23:33N 49°05' W 123°20'1312.9
2014-Dec-01 22:34N 48°55' W 123°07'10 9.9
2014-Dec-01 21:33N 48°45' W 123°05'1110.9
2014-Dec-01 20:33N 48°36' W 123°13'1312.8
2014-Dec-01 19:33N 48°23' W 123°15'7 6.5
2014-Dec-01 18:33N 48°20' W 123°24'9 9.4
2014-Dec-01 17:33N 48°13' W 123°33'1313.4
2014-Dec-01 16:33N 48°14' W 123°53'1312.7
2014-Dec-01 15:33N 48°18' W 124°11'1312.8
2014-Dec-01 14:33N 48°24' W 124°28'1211.9
2014-Dec-01 13:33N 48°28' W 124°45'1211.9
2014-Dec-01 12:33N 48°29' W 125°03'1211.9
2014-Dec-01 11:33N 48°29' W 125°21'1212.3
2014-Dec-01 10:33N 48°29' W 125°39'1312.5
2014-Dec-01 09:33N 48°29' W 125°58'1312.5
2014-Dec-01 08:33N 48°30' W 126°17'1412.9
2014-Dec-01 07:26N 48°30' W 126°39'  
Track history (hours):
 
Tides and Currents Weather Stations Pressure Air Temp Water Temp Dewpoint Dewpoint Depression Visibility Wind Speed Wind Dir Waves Ship Positions

Front Runner

Last reported at 2014-Dec-07 07:26 UTC. Time now 2014-Dec-20 08:01 UTC.
Position N 36°52' W 125°21'.
Warning: this ship's position is 13 days out of date.

Length 190 m; draft 11.6 m.

Type: Cargo ship. MMSI: 357941000.

Date/timePositionNaut miles runAvg speedWind from/ knotsBaromVisibWave heightAir tempDewpointWater temp
2014-Dec-07 07:26N 36°52' W 125°21'2410.8
2014-Dec-07 05:12N 37°16' W 125°24'  
2014-Dec-04 11:13N 48°00' W 125°41'810.6
2014-Dec-04 10:30N 48°05' W 125°33'1010.9
2014-Dec-04 09:33N 48°13' W 125°22'1110.6
2014-Dec-04 08:33N 48°21' W 125°12'1010.3
2014-Dec-04 07:33N 48°29' W 125°03'1111.0
2014-Dec-04 06:33N 48°30' W 124°47'1111.5
2014-Dec-04 05:33N 48°27' W 124°30'1212.4
2014-Dec-04 04:33N 48°22' W 124°13'1312.6
2014-Dec-04 03:33N 48°18' W 123°55'1414.2
2014-Dec-04 02:34N 48°15' W 123°34'1110.9
2014-Dec-04 01:33N 48°23' W 123°22'1111.2
2014-Dec-04 00:34N 48°32' W 123°13'1312.5
2014-Dec-03 23:33N 48°44' W 123°08'9 9.4
2014-Dec-03 22:33N 48°54' W 123°08'1313.4
2014-Dec-03 21:33N 49°03' W 123°23'1312.9
2014-Dec-03 20:33N 49°16' W 123°20'9 9.2
2014-Dec-03 19:34N 49°18' W 123°06'2 2.0
2014-Dec-03 18:32N 49°18' W 123°03'0 0.0
2014-Dec-03 17:32N 49°18' W 123°03'0 0.0
2014-Dec-03 16:32N 49°18' W 123°03'0 0.0
2014-Dec-03 15:32N 49°18' W 123°03'0 0.0
2014-Dec-03 14:32N 49°18' W 123°03'0 0.0
2014-Dec-03 13:32N 49°18' W 123°03'0 0.0
2014-Dec-03 12:32N 49°18' W 123°03'0 0.0
2014-Dec-03 11:32N 49°18' W 123°03'0 0.0
2014-Dec-03 10:32N 49°18' W 123°03'0 0.0
2014-Dec-03 09:32N 49°18' W 123°03'0 0.0
2014-Dec-03 08:32N 49°18' W 123°03'0 0.0
2014-Dec-03 07:32N 49°18' W 123°03'0 0.0
2014-Dec-03 06:32N 49°18' W 123°03'0 0.0
2014-Dec-03 05:32N 49°18' W 123°03'0 0.0
2014-Dec-03 04:32N 49°18' W 123°03'0 0.0
2014-Dec-03 03:32N 49°18' W 123°03'0 0.0
2014-Dec-03 02:32N 49°18' W 123°03'0 0.0
2014-Dec-03 01:32N 49°18' W 123°03'0 0.0
2014-Dec-03 00:32N 49°18' W 123°03'0 0.0
2014-Dec-02 23:32N 49°18' W 123°03'0 0.0
2014-Dec-02 22:32N 49°18' W 123°03'0 0.0
2014-Dec-02 21:32N 49°18' W 123°03'0 0.0
2014-Dec-02 20:29N 49°18' W 123°03'0 0.0
2014-Dec-02 19:33N 49°18' W 123°03'0 0.0
2014-Dec-02 18:33N 49°18' W 123°03'0 0.0
2014-Dec-02 17:33N 49°18' W 123°03'0 0.0
2014-Dec-02 16:30N 49°18' W 123°03'0 0.0
2014-Dec-02 15:33N 49°18' W 123°03'0 0.0
2014-Dec-02 14:33N 49°18' W 123°03'0 0.0
2014-Dec-02 13:33N 49°18' W 123°03'0 0.0
2014-Dec-02 12:33N 49°18' W 123°03'0 0.0
2014-Dec-02 11:33N 49°18' W 123°03'0 0.0
2014-Dec-02 10:33N 49°18' W 123°03'0 0.0
2014-Dec-02 09:33N 49°18' W 123°03'0 0.0
2014-Dec-02 08:33N 49°18' W 123°03'0 0.0
2014-Dec-02 07:33N 49°18' W 123°03'0 0.0
2014-Dec-02 06:33N 49°18' W 123°03'0 0.0
2014-Dec-02 05:33N 49°18' W 123°03'0 0.0
2014-Dec-02 04:33N 49°18' W 123°03'0 0.0
2014-Dec-02 03:33N 49°18' W 123°03'0 0.0
2014-Dec-02 02:33N 49°18' W 123°03'1 1.1
2014-Dec-02 01:33N 49°18' W 123°05'8 8.2
2014-Dec-02 00:34N 49°18' W 123°17'1313.1
2014-Dec-01 23:33N 49°05' W 123°20'1312.9
2014-Dec-01 22:34N 48°55' W 123°07'10 9.9
2014-Dec-01 21:33N 48°45' W 123°05'1110.9
2014-Dec-01 20:33N 48°36' W 123°13'1312.8
2014-Dec-01 19:33N 48°23' W 123°15'7 6.5
2014-Dec-01 18:33N 48°20' W 123°24'9 9.4
2014-Dec-01 17:33N 48°13' W 123°33'1313.4
2014-Dec-01 16:33N 48°14' W 123°53'1312.7
2014-Dec-01 15:33N 48°18' W 124°11'1312.8
2014-Dec-01 14:33N 48°24' W 124°28'1211.9
2014-Dec-01 13:33N 48°28' W 124°45'1211.9
2014-Dec-01 12:33N 48°29' W 125°03'1211.9
2014-Dec-01 11:33N 48°29' W 125°21'1212.3
2014-Dec-01 10:33N 48°29' W 125°39'1312.5
2014-Dec-01 09:33N 48°29' W 125°58'1312.5
2014-Dec-01 08:33N 48°30' W 126°17'1412.9
2014-Dec-01 07:26N 48°30' W 126°39'  

Dump ship's entire track history